createdAt,value
2022-10-01T00:01:38.327Z,5.40
2022-10-01T00:06:47.902Z,5.53
2022-10-01T00:11:55.071Z,5.90
2022-10-01T00:17:03.249Z,4.73
2022-10-01T00:22:18.431Z,4.70
2022-10-01T00:27:25.252Z,4.67
2022-10-01T00:32:56.374Z,4.30
2022-10-01T00:38:08.845Z,4.00
2022-10-01T00:43:41.368Z,3.80
2022-10-01T00:49:13.165Z,4.13
2022-10-01T00:54:29.790Z,3.80
2022-10-01T00:59:58.430Z,3.50
2022-10-01T01:05:16.687Z,3.30
2022-10-01T01:10:46.346Z,3.30
2022-10-01T01:16:02.906Z,3.00
2022-10-01T01:21:38.633Z,3.07
2022-10-01T01:27:11.646Z,3.30
2022-10-01T01:32:33.701Z,3.37
2022-10-01T01:37:47.547Z,2.97
2022-10-01T01:43:13.696Z,3.37
2022-10-01T01:48:21.058Z,3.00
2022-10-01T01:53:35.998Z,3.10
2022-10-01T01:58:48.425Z,3.03
2022-10-01T02:04:04.683Z,2.87
2022-10-01T02:09:21.875Z,2.90
2022-10-01T02:14:47.127Z,3.00
2022-10-01T02:20:06.627Z,3.10
2022-10-01T02:25:33.927Z,3.23
2022-10-01T02:30:58.316Z,2.90
2022-10-01T02:36:14.784Z,3.37
2022-10-01T02:41:43.391Z,3.17
2022-10-01T02:47:22.251Z,2.93
2022-10-01T02:52:42.028Z,3.57
2022-10-01T03:03:33.102Z,3.07
2022-10-01T03:09:00.897Z,3.30
2022-10-01T03:14:11.153Z,3.13
2022-10-01T03:19:20.738Z,3.10
2022-10-01T03:24:32.082Z,3.07
2022-10-01T03:29:47.308Z,3.07
2022-10-01T03:34:54.411Z,3.50
2022-10-01T03:40:06.543Z,3.60
2022-10-01T03:45:13.581Z,3.67
2022-10-01T03:50:23.561Z,4.07
2022-10-01T03:55:34.219Z,4.53
2022-10-01T04:00:42.409Z,3.90
2022-10-01T04:05:51.542Z,4.20
2022-10-01T04:11:01.018Z,4.03
2022-10-01T04:16:07.292Z,4.13
2022-10-01T04:21:19.474Z,4.53
2022-10-01T04:26:30.716Z,4.00
2022-10-01T04:37:01.060Z,4.40
2022-10-01T04:42:15.324Z,4.93
2022-10-01T04:47:26.016Z,4.80
2022-10-01T04:52:34.088Z,5.17
2022-10-01T04:57:56.307Z,5.07
2022-10-01T05:03:07.784Z,5.10
2022-10-01T05:08:16.562Z,5.63
2022-10-01T05:13:32.747Z,5.47
2022-10-01T05:18:48.166Z,5.43
2022-10-01T05:23:52.961Z,5.47
2022-10-01T05:28:59.652Z,5.63
2022-10-01T05:34:13.076Z,5.03
2022-10-01T05:39:31.594Z,5.40
2022-10-01T05:44:47.661Z,5.70
2022-10-01T05:49:52.691Z,5.57
2022-10-01T05:54:57.499Z,5.40
2022-10-01T06:00:08.178Z,4.90
2022-10-01T06:05:16.029Z,4.93
2022-10-01T06:10:28.615Z,5.27
2022-10-01T06:15:52.106Z,5.10
2022-10-01T06:21:00.275Z,5.00
2022-10-01T06:26:18.456Z,5.07
2022-10-01T06:31:29.903Z,5.10
2022-10-01T06:36:36.735Z,4.90
2022-10-01T06:41:45.006Z,5.60
2022-10-01T06:46:55.980Z,4.53
2022-10-01T06:52:20.047Z,5.20
2022-10-01T06:57:28.839Z,4.73
2022-10-01T07:02:50.618Z,4.83
2022-10-01T07:08:04.392Z,4.70
2022-10-01T07:13:21.559Z,4.97
2022-10-01T07:18:36.550Z,4.80
2022-10-01T07:24:05.487Z,4.73
2022-10-01T07:29:16.220Z,4.90
2022-10-01T07:34:35.859Z,4.17
2022-10-01T07:39:57.612Z,4.43
2022-10-01T07:45:11.207Z,4.70
2022-10-01T07:50:47.714Z,5.13
2022-10-01T07:56:08.309Z,5.27
2022-10-01T08:01:49.602Z,5.10
2022-10-01T08:12:22.151Z,5.13
2022-10-01T08:17:32.197Z,5.63
2022-10-01T08:23:49.687Z,5.60
2022-10-01T08:29:24.294Z,5.77
2022-10-01T08:34:34.263Z,6.03
2022-10-01T08:39:45.581Z,5.57
2022-10-01T08:44:54.729Z,5.47
2022-10-01T08:50:24.077Z,4.40
2022-10-01T08:55:38.116Z,3.90
2022-10-01T09:00:50.420Z,4.17
2022-10-01T09:06:10.974Z,4.13
2022-10-01T09:11:33.761Z,4.23
2022-10-01T09:16:55.206Z,4.13
2022-10-01T09:22:22.742Z,4.30
2022-10-01T09:27:36.920Z,4.07
2022-10-01T09:32:58.220Z,3.90
2022-10-01T09:38:06.662Z,4.07
2022-10-01T09:43:20.454Z,4.60
2022-10-01T09:48:38.545Z,4.33
2022-10-01T09:53:52.779Z,3.93
2022-10-01T09:59:11.544Z,3.83
2022-10-01T10:04:35.256Z,3.80
2022-10-01T10:09:41.846Z,2.93
2022-10-01T10:15:02.182Z,2.50
2022-10-01T10:20:44.753Z,2.30
2022-10-01T10:26:02.911Z,1.50
2022-10-01T10:31:16.924Z,1.67
2022-10-01T10:36:42.023Z,1.70
2022-10-01T10:42:00.408Z,1.30
2022-10-01T10:47:18.444Z,1.60
2022-10-01T10:52:37.883Z,1.70
2022-10-01T10:57:46.699Z,1.93
2022-10-01T11:02:57.214Z,1.40
2022-10-01T11:08:12.976Z,1.43
2022-10-01T11:13:35.505Z,1.40
2022-10-01T11:19:07.444Z,1.57
2022-10-01T11:24:35.754Z,1.63
2022-10-01T11:29:58.314Z,1.40
2022-10-01T11:35:29.659Z,1.20
2022-10-01T11:41:04.971Z,1.00
2022-10-01T11:46:25.629Z,1.53
2022-10-01T11:51:39.980Z,0.77
2022-10-01T11:57:13.822Z,1.00
2022-10-01T12:02:26.553Z,1.00
2022-10-01T12:07:39.244Z,0.80
2022-10-01T12:12:54.616Z,0.90
2022-10-01T12:18:20.192Z,0.80
2022-10-01T12:23:39.946Z,0.70
2022-10-01T12:29:13.530Z,0.80
2022-10-01T12:34:39.053Z,0.97
2022-10-01T12:40:07.964Z,0.90
2022-10-01T12:45:28.914Z,1.10
2022-10-01T12:50:42.429Z,0.70
2022-10-01T12:56:10.936Z,0.73
2022-10-01T13:01:31.878Z,0.80
2022-10-01T13:06:49.003Z,0.60
2022-10-01T13:12:22.642Z,0.57
2022-10-01T13:17:51.280Z,0.60
2022-10-01T13:23:23.568Z,0.50
2022-10-01T13:28:49.251Z,0.60
2022-10-01T13:34:06.203Z,0.52
2022-10-01T13:44:47.701Z,0.50
2022-10-01T13:50:28.367Z,0.50
2022-10-01T13:55:41.220Z,0.52
2022-10-01T14:01:03.426Z,0.90
2022-10-01T14:06:33.563Z,0.50
2022-10-01T14:11:57.045Z,0.40
2022-10-01T14:17:12.886Z,0.40
2022-10-01T14:22:30.229Z,0.40
2022-10-01T14:27:51.945Z,0.50
2022-10-01T14:33:31.825Z,0.50
2022-10-01T14:38:54.502Z,0.60
2022-10-01T14:44:48.460Z,0.40
2022-10-01T14:49:57.259Z,0.40
2022-10-01T14:55:20.063Z,0.50
2022-10-01T15:00:31.302Z,0.50
2022-10-01T15:05:47.266Z,0.50
2022-10-01T15:11:24.607Z,0.50
2022-10-01T15:16:34.563Z,0.70
2022-10-01T15:21:53.437Z,0.60
2022-10-01T15:27:20.619Z,0.63
2022-10-01T15:33:01.649Z,0.50
2022-10-01T15:38:09.875Z,0.63
2022-10-01T15:49:28.369Z,0.50
2022-10-01T15:54:36.182Z,0.73
2022-10-01T16:00:00.975Z,0.60
2022-10-01T16:05:11.539Z,1.00
2022-10-01T16:10:41.296Z,0.95
2022-10-01T16:16:28.920Z,0.68
2022-10-01T16:21:46.339Z,0.80
2022-10-01T16:27:00.124Z,0.80
2022-10-01T16:32:20.348Z,0.70
2022-10-01T16:37:27.379Z,0.80
2022-10-01T16:48:04.628Z,0.82
2022-10-01T16:53:18.478Z,0.90
2022-10-01T16:58:28.646Z,0.85
2022-10-01T17:03:38.126Z,1.00
2022-10-01T17:08:52.286Z,0.95
2022-10-01T17:14:04.956Z,1.10
2022-10-01T17:19:17.388Z,1.17
2022-10-01T17:24:25.514Z,0.90
2022-10-01T17:29:36.415Z,1.00
2022-10-01T17:34:47.223Z,0.98
2022-10-01T17:40:39.067Z,1.50
2022-10-01T17:45:56.822Z,1.45
2022-10-01T17:51:11.876Z,1.20
2022-10-01T17:56:20.483Z,1.30
2022-10-01T18:01:46.758Z,1.50
2022-10-01T18:07:00.964Z,0.80
2022-10-01T18:12:06.408Z,1.13
2022-10-01T18:17:14.957Z,1.10
2022-10-01T18:22:23.520Z,1.10
2022-10-01T18:27:32.082Z,1.13
2022-10-01T18:32:46.238Z,1.10
2022-10-01T18:38:01.504Z,1.00
2022-10-01T18:43:25.581Z,1.10
2022-10-01T18:49:00.298Z,1.20
2022-10-01T18:54:35.131Z,1.40
2022-10-01T19:00:09.086Z,1.60
2022-10-01T19:05:40.824Z,1.40
2022-10-01T19:11:05.647Z,1.60
2022-10-01T19:16:29.647Z,1.35
2022-10-01T19:21:45.430Z,1.27
2022-10-01T19:27:22.220Z,0.85
2022-10-01T19:32:38.298Z,1.27
2022-10-01T19:37:52.758Z,1.15
2022-10-01T19:43:17.448Z,1.45
2022-10-01T19:48:38.918Z,1.02
2022-10-01T19:53:51.396Z,1.02
2022-10-01T19:58:57.010Z,1.40
2022-10-01T20:04:24.822Z,1.02
2022-10-01T20:09:48.913Z,1.00
2022-10-01T20:15:21.841Z,1.00
2022-10-01T20:20:39.058Z,1.13
2022-10-01T20:25:48.393Z,1.30
2022-10-01T20:31:09.768Z,0.97
2022-10-01T20:36:24.072Z,1.17
2022-10-01T20:41:43.029Z,0.93
2022-10-01T20:46:56.679Z,1.10
2022-10-01T20:52:07.860Z,1.37
2022-10-01T20:57:38.211Z,1.40
2022-10-01T21:03:05.577Z,1.40
2022-10-01T21:08:19.020Z,1.33
2022-10-01T21:13:35.174Z,1.30
2022-10-01T21:18:53.132Z,1.50
2022-10-01T21:24:13.718Z,1.90
2022-10-01T21:29:58.796Z,1.50
2022-10-01T21:35:29.858Z,1.67
2022-10-01T21:41:14.444Z,1.60
2022-10-01T21:46:25.016Z,1.07
2022-10-01T21:51:44.362Z,1.00
2022-10-01T21:57:04.364Z,1.10
2022-10-01T22:02:29.946Z,1.20
2022-10-01T22:07:53.117Z,1.30
2022-10-01T22:13:17.106Z,1.30
2022-10-01T22:18:43.460Z,1.20
2022-10-01T22:24:11.880Z,1.30
2022-10-01T22:29:32.072Z,1.50
2022-10-01T22:34:49.842Z,1.53
2022-10-01T22:40:06.376Z,1.13
2022-10-01T22:45:18.352Z,1.40
2022-10-01T22:50:55.282Z,1.60
2022-10-01T22:56:07.293Z,1.47
2022-10-01T23:01:43.548Z,1.40
2022-10-01T23:06:58.970Z,1.63
2022-10-01T23:12:16.527Z,1.70
2022-10-01T23:17:34.019Z,1.27
2022-10-01T23:22:57.979Z,1.67
2022-10-01T23:28:27.336Z,1.70
2022-10-01T23:33:50.101Z,1.97
2022-10-01T23:39:34.577Z,1.70
2022-10-01T23:44:51.817Z,1.57
2022-10-01T23:50:16.091Z,1.77
2022-10-01T23:56:00.843Z,1.90
